Aspen, Colorado
Current Conditions -  °F | °C
As of 3:53 AM on Friday 28 Nov 2014 (Local Time) from KASE Reporting Station
Clear Clear  
Wind Chill: -6°   Ceiling: Unl
Heat Index: -2°   Visibility: 10mi
Dew Point: -7°   Wind: 7mph
Humidity: 67%   Direction: 190°S
Pressure: 30.25"   Gusts: NA
Location:  39.19°N, 106.81°W
Report Text: KASE 281053Z 19006KT 10SM CLR M02/M07 A3025 RMK AO2 SLP210 T10171072
Loading
Personal Weather Stations






























Interactive Weather Map New forecast layout! Learn more

10-Day Weather Forecast

Advertisements
Track Severe Weather on mobile